Погода Крайновкана 2 недели

Республика Дагестан, Россия

13 - 26 июля
  • 13июля
    Сегодня
    +17°
    +32°
    Ясно и безоблачно
    ВремяПогодаТемператураВлажностьДавлениеВетер, м/сВероятность осадков
    00:00Ясно и безоблачно+23°C31 %757 мм1.7 м/с2 %
    03:00Ясно и безоблачно+22°C38 %757 мм2.0 м/с2 %
    06:00Ясно и безоблачно+22°C38 %757 мм1.6 м/с2 %
    09:00Ясно и безоблачно+28°C22 %757 мм2.9 м/с2 %
    12:00Ясно и безоблачно+30°C15 %757 мм3.6 м/с2 %
    15:00Ясно и безоблачно+32°C14 %756 мм3.6 м/с2 %
    18:00Ясно и безоблачно+30°C14 %755 мм2.9 м/с2 %
    21:00Ясно и безоблачно+22°C19 %756 мм1.0 м/с2 %
  • 14июля
    Воскресенье
    +19°
    +32°
    Ясно и безоблачно
    ВремяПогодаТемператураВлажностьДавлениеВетер, м/сВероятность осадков
    00:00Ясно и безоблачно+19°C38 %756 мм1.1 м/с2 %
    03:00Ясно и безоблачно+18°C35 %756 мм1.9 м/с2 %
    06:00Ясно и безоблачно+20°C29 %757 мм2.4 м/с2 %
    09:00Ясно и безоблачно+27°C16 %757 мм3.1 м/с2 %
    12:00Ясно и безоблачно+30°C12 %756 мм3.4 м/с2 %
    15:00Ясно и безоблачно+32°C11 %755 мм3.3 м/с2 %
    18:00Ясно и безоблачно+30°C16 %755 мм2.9 м/с2 %
    21:00Ясно и безоблачно+23°C25 %756 мм2.5 м/с2 %
  • 15июля
    Понедельник
    +21°
    +36°
    Ясно и безоблачно
    ВремяПогодаТемператураВлажностьДавлениеВетер, м/сВероятность осадков
    00:00Ясно и безоблачно+21°C38 %756 мм1.1 м/с2 %
    03:00Ясно и безоблачно+20°C40 %756 мм0.9 м/с2 %
    06:00Ясно и безоблачно+22°C36 %756 мм1.3 м/с2 %
    09:00Ясно и безоблачно+31°C25 %756 мм1.2 м/с2 %
    12:00Небольшая облачность+34°C21 %756 мм2.4 м/с2 %
    15:00Ясно и безоблачно+35°C23 %755 мм5.4 м/с2 %
    18:00Ясно и безоблачно+33°C26 %755 мм4.2 м/с2 %
    21:00Ясно и безоблачно+26°C45 %756 мм2.5 м/с2 %
  • 16июля
    Вторник
    +22°
    +37°
    Облачно с прояснениями
    ВремяПогодаТемператураВлажностьДавлениеВетер, м/сВероятность осадков
    00:00Ясно и безоблачно+23°C56 %756 мм1.3 м/с2 %
    03:00Ясно и безоблачно+22°C67 %756 мм0.7 м/с2 %
    06:00Ясно и безоблачно+24°C61 %757 мм1.4 м/с2 %
    09:00Ясно и безоблачно+32°C29 %757 мм1.6 м/с2 %
    12:00Практически безоблачно+36°C20 %756 мм1.9 м/с2 %
    15:00Облачно с прояснениями+36°C21 %755 мм4.8 м/с2 %
    18:00Ясно и безоблачно+33°C28 %756 мм5.1 м/с2 %
    21:00Ясно и безоблачно+26°C37 %757 мм2.1 м/с2 %
  • 17июля
    Среда
    +21°
    +35°
    Ясно и безоблачно
    ВремяПогодаТемператураВлажностьДавлениеВетер, м/сВероятность осадков
    00:00Ясно и безоблачно+24°C46 %756 мм1.4 м/с2 %
    03:00Ясно и безоблачно+23°C51 %757 мм1.8 м/с2 %
    06:00Ясно и безоблачно+25°C49 %757 мм1.9 м/с2 %
    09:00Практически безоблачно+33°C27 %757 мм2.6 м/с2 %
    12:00Практически безоблачно+34°C25 %757 мм3.6 м/с7 %
    15:00Ясно и безоблачно+35°C23 %757 мм4.5 м/с10 %
    18:00Ясно и безоблачно+31°C29 %757 мм4.8 м/с3 %
    21:00Ясно и безоблачно+25°C43 %757 мм2.6 м/с2 %
Мы используем cookies
Соглашаюсь